sensor_id;sensor_type;location;lat;lon;timestamp;pressure;altitude;pressure_sealevel;temperature;humidity
44148;BME280;29810;55.848;37.368;2023-02-12T00:02:11;97680.09;;;-1.98;96.44
44148;BME280;29810;55.848;37.368;2023-02-12T00:05:13;97696.47;;;-2.18;93.80
44148;BME280;29810;55.848;37.368;2023-02-12T00:08:16;97708.50;;;-2.33;94.13
44148;BME280;29810;55.848;37.368;2023-02-12T00:11:21;97755.31;;;-2.34;93.74
44148;BME280;29810;55.848;37.368;2023-02-12T00:14:23;97741.72;;;-2.33;95.02
44148;BME280;29810;55.848;37.368;2023-02-12T00:17:25;97747.75;;;-2.46;96.09
44148;BME280;29810;55.848;37.368;2023-02-12T00:20:26;97747.91;;;-2.64;94.52
44148;BME280;29810;55.848;37.368;2023-02-12T00:23:28;97784.53;;;-2.75;96.44
44148;BME280;29810;55.848;37.368;2023-02-12T00:26:29;97756.50;;;-2.81;97.17
44148;BME280;29810;55.848;37.368;2023-02-12T00:29:31;97752.31;;;-2.87;98.38
44148;BME280;29810;55.848;37.368;2023-02-12T00:32:32;97816.13;;;-2.97;97.32
44148;BME280;29810;55.848;37.368;2023-02-12T00:35:34;97805.13;;;-3.06;97.33
44148;BME280;29810;55.848;37.368;2023-02-12T00:38:35;97821.31;;;-3.13;98.01
44148;BME280;29810;55.848;37.368;2023-02-12T00:41:38;97792.47;;;-3.23;98.80
44148;BME280;29810;55.848;37.368;2023-02-12T00:44:41;97815.41;;;-3.32;98.19
44148;BME280;29810;55.848;37.368;2023-02-12T00:47:43;97835.00;;;-3.39;99.13
44148;BME280;29810;55.848;37.368;2023-02-12T00:50:46;97823.06;;;-3.34;99.13
44148;BME280;29810;55.848;37.368;2023-02-12T00:53:48;97844.31;;;-3.36;98.62
44148;BME280;29810;55.848;37.368;2023-02-12T00:56:50;97864.72;;;-3.36;97.95
44148;BME280;29810;55.848;37.368;2023-02-12T00:59:51;97855.41;;;-3.46;96.62
44148;BME280;29810;55.848;37.368;2023-02-12T01:02:53;97873.25;;;-3.43;96.60
44148;BME280;29810;55.848;37.368;2023-02-12T01:05:55;97861.34;;;-3.43;96.98
44148;BME280;29810;55.848;37.368;2023-02-12T01:08:57;97923.38;;;-3.61;95.13
44148;BME280;29810;55.848;37.368;2023-02-12T01:11:59;97918.28;;;-3.56;97.12
44148;BME280;29810;55.848;37.368;2023-02-12T01:15:00;97892.81;;;-3.66;96.53
44148;BME280;29810;55.848;37.368;2023-02-12T01:18:02;97912.37;;;-3.64;97.39
44148;BME280;29810;55.848;37.368;2023-02-12T01:21:17;97925.94;;;-3.69;97.55
44148;BME280;29810;55.848;37.368;2023-02-12T01:24:19;97966.69;;;-3.69;97.17
44148;BME280;29810;55.848;37.368;2023-02-12T01:27:20;97947.16;;;-3.73;97.22
44148;BME280;29810;55.848;37.368;2023-02-12T01:30:22;97935.28;;;-3.78;96.67
44148;BME280;29810;55.848;37.368;2023-02-12T01:33:26;97956.50;;;-3.78;97.72
44148;BME280;29810;55.848;37.368;2023-02-12T01:36:29;97964.13;;;-3.87;97.05
44148;BME280;29810;55.848;37.368;2023-02-12T01:39:31;97966.69;;;-3.89;96.82
44148;BME280;29810;55.848;37.368;2023-02-12T01:42:32;97986.22;;;-3.89;96.61
44148;BME280;29810;55.848;37.368;2023-02-12T01:48:43;98021.00;;;-3.90;96.14
44148;BME280;29810;55.848;37.368;2023-02-12T01:51:46;98015.09;;;-3.84;96.25
44148;BME280;29810;55.848;37.368;2023-02-12T01:54:50;98041.41;;;-3.82;96.58
44148;BME280;29810;55.848;37.368;2023-02-12T01:57:52;98015.06;;;-3.87;95.58
44148;BME280;29810;55.848;37.368;2023-02-12T02:00:54;98059.25;;;-3.79;95.77
44148;BME280;29810;55.848;37.368;2023-02-12T02:04:01;98042.22;;;-3.92;95.25
44148;BME280;29810;55.848;37.368;2023-02-12T02:07:05;98048.19;;;-3.92;94.59
44148;BME280;29810;55.848;37.368;2023-02-12T02:10:10;98071.13;;;-3.90;94.94
44148;BME280;29810;55.848;37.368;2023-02-12T02:13:11;98065.16;;;-3.85;94.27
44148;BME280;29810;55.848;37.368;2023-02-12T02:20:48;98081.31;;;-3.84;94.46
44148;BME280;29810;55.848;37.368;2023-02-12T02:24:09;98106.78;;;-3.84;93.82
44148;BME280;29810;55.848;37.368;2023-02-12T02:27:34;98069.41;;;-3.88;92.53
44148;BME280;29810;55.848;37.368;2023-02-12T02:30:53;98134.78;;;-3.89;92.65
44148;BME280;29810;55.848;37.368;2023-02-12T02:34:23;98114.41;;;-3.92;94.77
44148;BME280;29810;55.848;37.368;2023-02-12T02:37:34;98116.13;;;-3.88;96.03
44148;BME280;29810;55.848;37.368;2023-02-12T02:40:51;98128.81;;;-3.92;96.04
44148;BME280;29810;55.848;37.368;2023-02-12T02:43:55;98170.41;;;-3.98;96.31
44148;BME280;29810;55.848;37.368;2023-02-12T02:46:57;98153.41;;;-4.04;96.84
44148;BME280;29810;55.848;37.368;2023-02-12T02:50:11;98201.78;;;-4.01;97.73
44148;BME280;29810;55.848;37.368;2023-02-12T02:53:29;98204.28;;;-4.08;96.83
44148;BME280;29810;55.848;37.368;2023-02-12T02:56:34;98179.66;;;-4.11;97.44
44148;BME280;29810;55.848;37.368;2023-02-12T02:59:44;98174.53;;;-4.20;96.85
44148;BME280;29810;55.848;37.368;2023-02-12T03:02:51;98204.25;;;-4.13;98.35
44148;BME280;29810;55.848;37.368;2023-02-12T03:06:01;98215.31;;;-4.16;98.16
44148;BME280;29810;55.848;37.368;2023-02-12T03:09:14;98220.34;;;-4.19;98.14
44148;BME280;29810;55.848;37.368;2023-02-12T03:12:21;98220.25;;;-4.33;97.45
44148;BME280;29810;55.848;37.368;2023-02-12T03:15:33;98230.50;;;-4.26;98.61
44148;BME280;29810;55.848;37.368;2023-02-12T03:18:41;98254.22;;;-4.27;98.89
44148;BME280;29810;55.848;37.368;2023-02-12T03:21:49;98250.03;;;-4.25;98.84
44148;BME280;29810;55.848;37.368;2023-02-12T03:25:00;98256.69;;;-4.41;96.97
44148;BME280;29810;55.848;37.368;2023-02-12T03:28:12;98271.13;;;-4.39;97.19
44148;BME280;29810;55.848;37.368;2023-02-12T03:37:37;98305.03;;;-4.43;96.50
44148;BME280;29810;55.848;37.368;2023-02-12T03:40:55;98291.34;;;-4.57;94.56
44148;BME280;29810;55.848;37.368;2023-02-12T03:44:19;98310.97;;;-4.39;95.17
44148;BME280;29810;55.848;37.368;2023-02-12T03:50:40;98338.81;;;-4.59;89.61
44148;BME280;29810;55.848;37.368;2023-02-12T03:53:43;98330.38;;;-4.52;89.57
44148;BME280;29810;55.848;37.368;2023-02-12T03:56:52;98313.44;;;-4.50;88.18
44148;BME280;29810;55.848;37.368;2023-02-12T03:59:56;98422.94;;;-4.45;86.97
44148;BME280;29810;55.848;37.368;2023-02-12T04:02:59;98338.94;;;-4.45;87.06
44148;BME280;29810;55.848;37.368;2023-02-12T04:06:01;98373.59;;;-4.60;86.10
44148;BME280;29810;55.848;37.368;2023-02-12T04:09:07;98405.03;;;-4.53;86.44
44148;BME280;29810;55.848;37.368;2023-02-12T04:21:43;98388.88;;;-4.54;84.51
44148;BME280;29810;55.848;37.368;2023-02-12T04:28:25;98471.22;;;-4.47;82.91
44148;BME280;29810;55.848;37.368;2023-02-12T04:31:51;98433.00;;;-4.55;82.94
44148;BME280;29810;55.848;37.368;2023-02-12T04:35:10;98441.50;;;-4.50;83.23
44148;BME280;29810;55.848;37.368;2023-02-12T04:38:39;98421.16;;;-4.50;83.00
44148;BME280;29810;55.848;37.368;2023-02-12T04:41:41;98429.69;;;-4.46;82.71
44148;BME280;29810;55.848;37.368;2023-02-12T04:44:43;98466.94;;;-4.51;82.76
44148;BME280;29810;55.848;37.368;2023-02-12T04:47:45;98456.75;;;-4.53;83.69
44148;BME280;29810;55.848;37.368;2023-02-12T04:50:47;98467.75;;;-4.55;84.47
44148;BME280;29810;55.848;37.368;2023-02-12T04:53:49;98454.19;;;-4.54;84.44
44148;BME280;29810;55.848;37.368;2023-02-12T04:56:51;98461.84;;;-4.51;84.57
44148;BME280;29810;55.848;37.368;2023-02-12T04:59:52;98513.56;;;-4.55;84.19
44148;BME280;29810;55.848;37.368;2023-02-12T05:02:54;98497.38;;;-4.59;85.57
44148;BME280;29810;55.848;37.368;2023-02-12T05:05:55;98503.38;;;-4.55;85.17
44148;BME280;29810;55.848;37.368;2023-02-12T05:08:57;98500.00;;;-4.56;84.59
44148;BME280;29810;55.848;37.368;2023-02-12T05:11:58;98495.72;;;-4.58;83.77
44148;BME280;29810;55.848;37.368;2023-02-12T05:15:00;98513.53;;;-4.57;83.21
44148;BME280;29810;55.848;37.368;2023-02-12T05:18:01;98532.97;;;-4.62;83.88
44148;BME280;29810;55.848;37.368;2023-02-12T05:21:04;98532.06;;;-4.69;83.01
44148;BME280;29810;55.848;37.368;2023-02-12T05:24:05;98545.63;;;-4.67;83.25
44148;BME280;29810;55.848;37.368;2023-02-12T05:27:07;98597.25;;;-4.75;83.00
44148;BME280;29810;55.848;37.368;2023-02-12T05:30:09;98552.28;;;-4.78;82.32
44148;BME280;29810;55.848;37.368;2023-02-12T05:33:11;98548.94;;;-4.74;82.88
44148;BME280;29810;55.848;37.368;2023-02-12T05:36:16;98569.97;;;-4.86;82.30
44148;BME280;29810;55.848;37.368;2023-02-12T05:39:18;98568.37;;;-4.77;81.53
44148;BME280;29810;55.848;37.368;2023-02-12T05:42:19;98595.44;;;-4.83;80.56
44148;BME280;29810;55.848;37.368;2023-02-12T05:45:21;98600.50;;;-4.84;81.45
44148;BME280;29810;55.848;37.368;2023-02-12T05:48:28;98596.13;;;-4.93;81.39
44148;BME280;29810;55.848;37.368;2023-02-12T05:51:35;98586.88;;;-4.89;80.28
44148;BME280;29810;55.848;37.368;2023-02-12T05:54:36;98614.78;;;-4.94;80.02
44148;BME280;29810;55.848;37.368;2023-02-12T05:57:38;98628.37;;;-4.90;79.80
44148;BME280;29810;55.848;37.368;2023-02-12T06:00:39;98614.81;;;-4.91;79.24
44148;BME280;29810;55.848;37.368;2023-02-12T06:03:42;98657.13;;;-4.94;79.41
44148;BME280;29810;55.848;37.368;2023-02-12T06:06:44;98624.75;;;-5.05;80.23
44148;BME280;29810;55.848;37.368;2023-02-12T06:09:45;98693.34;;;-5.09;79.88
44148;BME280;29810;55.848;37.368;2023-02-12T06:12:47;98650.03;;;-5.14;79.19
44148;BME280;29810;55.848;37.368;2023-02-12T06:15:53;98644.28;;;-5.04;79.55
44148;BME280;29810;55.848;37.368;2023-02-12T06:19:00;98639.09;;;-5.10;80.58
44148;BME280;29810;55.848;37.368;2023-02-12T06:22:08;98652.56;;;-5.16;79.97
44148;BME280;29810;55.848;37.368;2023-02-12T06:25:09;98662.91;;;-5.05;79.18
44148;BME280;29810;55.848;37.368;2023-02-12T06:28:13;98679.69;;;-5.14;79.49
44148;BME280;29810;55.848;37.368;2023-02-12T06:31:35;98688.16;;;-5.16;78.88
44148;BME280;29810;55.848;37.368;2023-02-12T06:34:37;98748.22;;;-5.21;78.94
44148;BME280;29810;55.848;37.368;2023-02-12T06:37:38;98703.28;;;-5.22;79.38
44148;BME280;29810;55.848;37.368;2023-02-12T06:40:40;98714.50;;;-5.12;79.46
44148;BME280;29810;55.848;37.368;2023-02-12T06:43:42;98723.69;;;-5.19;79.24
44148;BME280;29810;55.848;37.368;2023-02-12T06:46:44;98728.81;;;-5.17;78.27
44148;BME280;29810;55.848;37.368;2023-02-12T06:49:49;98738.88;;;-5.20;78.93
44148;BME280;29810;55.848;37.368;2023-02-12T06:52:50;98749.06;;;-5.20;78.82
44148;BME280;29810;55.848;37.368;2023-02-12T06:55:52;98732.94;;;-5.22;78.75
44148;BME280;29810;55.848;37.368;2023-02-12T06:58:56;98748.38;;;-5.13;77.94
44148;BME280;29810;55.848;37.368;2023-02-12T07:01:57;98777.94;;;-5.17;77.00
44148;BME280;29810;55.848;37.368;2023-02-12T07:05:00;98766.22;;;-5.08;76.80
44148;BME280;29810;55.848;37.368;2023-02-12T07:08:01;98766.34;;;-5.02;76.89
44148;BME280;29810;55.848;37.368;2023-02-12T07:11:03;98771.28;;;-5.10;76.44
44148;BME280;29810;55.848;37.368;2023-02-12T07:14:06;98799.97;;;-5.17;76.37
44148;BME280;29810;55.848;37.368;2023-02-12T07:17:07;98815.91;;;-5.26;76.11
44148;BME280;29810;55.848;37.368;2023-02-12T07:20:10;98801.53;;;-5.24;75.39
44148;BME280;29810;55.848;37.368;2023-02-12T07:23:12;98789.25;;;-5.01;75.16
44148;BME280;29810;55.848;37.368;2023-02-12T07:26:14;98805.37;;;-5.02;73.80
44148;BME280;29810;55.848;37.368;2023-02-12T07:29:17;98801.66;;;-5.18;73.60
44148;BME280;29810;55.848;37.368;2023-02-12T07:32:18;98809.38;;;-5.13;74.21
44148;BME280;29810;55.848;37.368;2023-02-12T07:35:20;98861.97;;;-5.10;73.00
44148;BME280;29810;55.848;37.368;2023-02-12T07:38:21;98859.72;;;-5.38;72.46
44148;BME280;29810;55.848;37.368;2023-02-12T07:41:28;98835.03;;;-5.43;73.81
44148;BME280;29810;55.848;37.368;2023-02-12T07:44:30;98864.78;;;-5.38;73.65
44148;BME280;29810;55.848;37.368;2023-02-12T07:47:34;98847.34;;;-5.21;73.93
44148;BME280;29810;55.848;37.368;2023-02-12T07:50:38;98835.91;;;-5.00;73.29
44148;BME280;29810;55.848;37.368;2023-02-12T07:53:40;98890.78;;;-5.10;72.24
44148;BME280;29810;55.848;37.368;2023-02-12T07:56:43;98871.94;;;-5.20;72.76
44148;BME280;29810;55.848;37.368;2023-02-12T07:59:47;98859.06;;;-5.29;72.35
44148;BME280;29810;55.848;37.368;2023-02-12T08:02:54;98924.44;;;-5.22;71.53
44148;BME280;29810;55.848;37.368;2023-02-12T08:05:56;98919.69;;;-5.46;70.62
44148;BME280;29810;55.848;37.368;2023-02-12T08:09:03;98915.56;;;-5.41;71.39
44148;BME280;29810;55.848;37.368;2023-02-12T08:12:06;98880.19;;;-5.32;70.67
44148;BME280;29810;55.848;37.368;2023-02-12T08:15:07;98906.19;;;-5.02;70.44
44148;BME280;29810;55.848;37.368;2023-02-12T08:18:09;98902.44;;;-5.21;69.72
44148;BME280;29810;55.848;37.368;2023-02-12T08:21:33;98883.00;;;-5.18;70.06
44148;BME280;29810;55.848;37.368;2023-02-12T08:24:34;98908.47;;;-5.16;69.96
44148;BME280;29810;55.848;37.368;2023-02-12T08:27:35;98924.59;;;-5.14;69.92
44148;BME280;29810;55.848;37.368;2023-02-12T08:30:37;98929.78;;;-5.11;69.91
44148;BME280;29810;55.848;37.368;2023-02-12T08:33:38;98918.44;;;-4.84;69.61
44148;BME280;29810;55.848;37.368;2023-02-12T08:36:40;98944.06;;;-4.75;69.08
44148;BME280;29810;55.848;37.368;2023-02-12T08:39:42;98897.06;;;-4.94;68.32
44148;BME280;29810;55.848;37.368;2023-02-12T08:42:43;98954.63;;;-4.97;68.84
44148;BME280;29810;55.848;37.368;2023-02-12T08:45:45;98926.78;;;-4.91;68.09
44148;BME280;29810;55.848;37.368;2023-02-12T08:48:47;98948.03;;;-4.88;68.01
44148;BME280;29810;55.848;37.368;2023-02-12T08:51:50;98927.59;;;-4.92;67.42
44148;BME280;29810;55.848;37.368;2023-02-12T08:54:53;98942.03;;;-4.91;67.16
44148;BME280;29810;55.848;37.368;2023-02-12T08:57:54;98947.19;;;-4.88;67.37
44148;BME280;29810;55.848;37.368;2023-02-12T09:00:58;99026.91;;;-4.86;67.21
44148;BME280;29810;55.848;37.368;2023-02-12T09:04:00;98921.28;;;-5.10;67.35
44148;BME280;29810;55.848;37.368;2023-02-12T09:07:02;99043.22;;;-4.78;67.64
44148;BME280;29810;55.848;37.368;2023-02-12T09:10:04;98962.59;;;-4.82;68.07
44148;BME280;29810;55.848;37.368;2023-02-12T09:13:11;98976.91;;;-4.86;68.09
44148;BME280;29810;55.848;37.368;2023-02-12T09:16:13;98983.22;;;-4.67;68.15
44148;BME280;29810;55.848;37.368;2023-02-12T09:19:15;98967.38;;;-4.55;68.29
44148;BME280;29810;55.848;37.368;2023-02-12T09:22:16;98988.81;;;-4.42;68.30
44148;BME280;29810;55.848;37.368;2023-02-12T09:25:18;98971.63;;;-4.52;67.77
44148;BME280;29810;55.848;37.368;2023-02-12T09:28:19;99041.97;;;-4.57;68.08
44148;BME280;29810;55.848;37.368;2023-02-12T09:31:27;99041.88;;;-4.60;67.61
44148;BME280;29810;55.848;37.368;2023-02-12T09:34:28;99013.25;;;-4.50;67.40
44148;BME280;29810;55.848;37.368;2023-02-12T09:37:30;98996.44;;;-4.42;66.71
44148;BME280;29810;55.848;37.368;2023-02-12T09:50:53;99004.31;;;-4.72;67.35
44148;BME280;29810;55.848;37.368;2023-02-12T09:54:02;99008.88;;;-4.57;66.98
44148;BME280;29810;55.848;37.368;2023-02-12T09:57:18;98998.81;;;-4.51;66.74
44148;BME280;29810;55.848;37.368;2023-02-12T10:00:27;98999.47;;;-4.17;66.28
44148;BME280;29810;55.848;37.368;2023-02-12T10:03:32;99000.91;;;-4.30;66.25
44148;BME280;29810;55.848;37.368;2023-02-12T10:06:48;99001.38;;;-4.50;66.97
44148;BME280;29810;55.848;37.368;2023-02-12T10:13:07;99033.78;;;-4.42;66.74
44148;BME280;29810;55.848;37.368;2023-02-12T10:16:40;99015.81;;;-4.50;66.97
44148;BME280;29810;55.848;37.368;2023-02-12T10:26:54;99048.75;;;-4.15;66.80
44148;BME280;29810;55.848;37.368;2023-02-12T10:29:56;99040.81;;;-4.29;68.10
44148;BME280;29810;55.848;37.368;2023-02-12T10:33:03;99033.59;;;-4.09;67.96
44148;BME280;29810;55.848;37.368;2023-02-12T10:36:20;99048.37;;;-4.34;69.03
44148;BME280;29810;55.848;37.368;2023-02-12T10:39:49;99060.41;;;-4.26;69.46
44148;BME280;29810;55.848;37.368;2023-02-12T10:42:52;99078.47;;;-4.16;67.57
44148;BME280;29810;55.848;37.368;2023-02-12T10:45:54;99070.94;;;-4.08;67.94
44148;BME280;29810;55.848;37.368;2023-02-12T10:48:58;99104.78;;;-4.15;67.52
44148;BME280;29810;55.848;37.368;2023-02-12T10:52:24;99065.31;;;-4.36;67.68
44148;BME280;29810;55.848;37.368;2023-02-12T10:55:26;99103.75;;;-4.23;67.90
44148;BME280;29810;55.848;37.368;2023-02-12T10:58:28;99072.44;;;-4.19;67.57
44148;BME280;29810;55.848;37.368;2023-02-12T11:01:32;99057.63;;;-4.37;68.55
44148;BME280;29810;55.848;37.368;2023-02-12T11:04:34;99096.13;;;-4.23;68.54
44148;BME280;29810;55.848;37.368;2023-02-12T11:07:47;99089.50;;;-4.15;68.43
44148;BME280;29810;55.848;37.368;2023-02-12T11:10:49;99109.06;;;-4.12;68.74
44148;BME280;29810;55.848;37.368;2023-02-12T11:14:06;99145.94;;;-4.35;68.02
44148;BME280;29810;55.848;37.368;2023-02-12T11:18:06;99165.59;;;-4.27;68.44
44148;BME280;29810;55.848;37.368;2023-02-12T11:20:49;99112.84;;;-4.35;68.67
44148;BME280;29810;55.848;37.368;2023-02-12T11:23:51;99135.97;;;-4.24;68.52
44148;BME280;29810;55.848;37.368;2023-02-12T11:27:11;99123.75;;;-4.01;68.53
44148;BME280;29810;55.848;37.368;2023-02-12T11:30:20;99168.00;;;-3.95;67.53
44148;BME280;29810;55.848;37.368;2023-02-12T11:33:31;99196.59;;;-4.09;68.39
44148;BME280;29810;55.848;37.368;2023-02-12T11:36:36;99154.03;;;-4.13;68.25
44148;BME280;29810;55.848;37.368;2023-02-12T11:39:38;99159.12;;;-4.13;67.62
44148;BME280;29810;55.848;37.368;2023-02-12T11:42:46;99146.16;;;-3.84;67.25
44148;BME280;29810;55.848;37.368;2023-02-12T11:45:53;99164.69;;;-3.91;67.50
44148;BME280;29810;55.848;37.368;2023-02-12T11:48:56;99159.97;;;-4.14;67.53
44148;BME280;29810;55.848;37.368;2023-02-12T11:52:00;99191.09;;;-3.88;67.78
44148;BME280;29810;55.848;37.368;2023-02-12T11:55:06;99181.03;;;-3.81;66.43
44148;BME280;29810;55.848;37.368;2023-02-12T12:01:23;99230.75;;;-4.37;67.51
44148;BME280;29810;55.848;37.368;2023-02-12T12:04:32;99242.22;;;-4.55;67.88
44148;BME280;29810;55.848;37.368;2023-02-12T12:07:38;99200.28;;;-4.69;68.17
44148;BME280;29810;55.848;37.368;2023-02-12T12:10:56;99210.72;;;-4.60;68.68
44148;BME280;29810;55.848;37.368;2023-02-12T12:14:24;99231.78;;;-4.64;69.70
44148;BME280;29810;55.848;37.368;2023-02-12T12:17:42;99233.22;;;-4.75;69.38
44148;BME280;29810;55.848;37.368;2023-02-12T12:21:18;99227.44;;;-4.68;68.92
44148;BME280;29810;55.848;37.368;2023-02-12T12:24:34;99224.19;;;-4.97;69.70
44148;BME280;29810;55.848;37.368;2023-02-12T12:31:13;99225.00;;;-4.99;70.05
44148;BME280;29810;55.848;37.368;2023-02-12T12:34:23;99276.50;;;-4.74;69.02
44148;BME280;29810;55.848;37.368;2023-02-12T12:37:28;99274.63;;;-4.81;68.92
44148;BME280;29810;55.848;37.368;2023-02-12T12:40:37;99262.66;;;-4.85;69.09
44148;BME280;29810;55.848;37.368;2023-02-12T12:54:06;99268.38;;;-4.94;69.19
44148;BME280;29810;55.848;37.368;2023-02-12T13:13:36;99298.50;;;-4.76;69.46
44148;BME280;29810;55.848;37.368;2023-02-12T13:16:48;99309.59;;;-4.74;69.87
44148;BME280;29810;55.848;37.368;2023-02-12T13:20:12;99286.25;;;-4.91;70.06
44148;BME280;29810;55.848;37.368;2023-02-12T13:33:41;99308.03;;;-5.01;70.53
44148;BME280;29810;55.848;37.368;2023-02-12T13:36:44;99314.06;;;-4.97;70.25
44148;BME280;29810;55.848;37.368;2023-02-12T13:39:48;99326.56;;;-5.05;70.69
44148;BME280;29810;55.848;37.368;2023-02-12T13:46:17;99324.06;;;-5.03;70.76
44148;BME280;29810;55.848;37.368;2023-02-12T13:56:24;99320.59;;;-5.07;71.18
44148;BME280;29810;55.848;37.368;2023-02-12T14:05:39;99321.03;;;-5.20;72.29
44148;BME280;29810;55.848;37.368;2023-02-12T14:08:48;99334.34;;;-5.30;72.53
44148;BME280;29810;55.848;37.368;2023-02-12T14:11:52;99330.84;;;-5.34;73.15
44148;BME280;29810;55.848;37.368;2023-02-12T14:28:10;99370.84;;;-5.56;74.78
44148;BME280;29810;55.848;37.368;2023-02-12T14:34:37;99369.75;;;-5.64;75.29
44148;BME280;29810;55.848;37.368;2023-02-12T14:37:39;99384.94;;;-5.67;75.98
44148;BME280;29810;55.848;37.368;2023-02-12T14:40:44;99387.09;;;-5.78;76.56
44148;BME280;29810;55.848;37.368;2023-02-12T14:43:47;99395.53;;;-5.79;76.67
44148;BME280;29810;55.848;37.368;2023-02-12T14:47:11;99406.53;;;-5.80;76.85
44148;BME280;29810;55.848;37.368;2023-02-12T14:50:18;99411.66;;;-5.78;77.08
44148;BME280;29810;55.848;37.368;2023-02-12T14:53:28;99406.56;;;-5.78;76.70
44148;BME280;29810;55.848;37.368;2023-02-12T14:56:36;99418.47;;;-5.77;76.86
44148;BME280;29810;55.848;37.368;2023-02-12T14:59:42;99421.69;;;-5.82;77.13
44148;BME280;29810;55.848;37.368;2023-02-12T15:02:51;99418.19;;;-5.87;77.33
44148;BME280;29810;55.848;37.368;2023-02-12T15:05:58;99436.00;;;-5.85;77.53
44148;BME280;29810;55.848;37.368;2023-02-12T15:09:07;99440.31;;;-5.83;77.48
44148;BME280;29810;55.848;37.368;2023-02-12T15:12:16;99436.66;;;-5.91;77.46
44148;BME280;29810;55.848;37.368;2023-02-12T15:15:36;99451.97;;;-5.89;77.63
44148;BME280;29810;55.848;37.368;2023-02-12T15:21:41;99457.63;;;-5.96;78.05
44148;BME280;29810;55.848;37.368;2023-02-12T15:24:42;99452.50;;;-6.00;78.49
44148;BME280;29810;55.848;37.368;2023-02-12T15:27:48;99450.66;;;-6.04;78.34
44148;BME280;29810;55.848;37.368;2023-02-12T15:30:51;99456.50;;;-6.06;78.82
44148;BME280;29810;55.848;37.368;2023-02-12T15:33:55;99448.94;;;-6.05;78.95
44148;BME280;29810;55.848;37.368;2023-02-12T15:37:00;99448.91;;;-6.06;78.92
44148;BME280;29810;55.848;37.368;2023-02-12T15:40:02;99454.91;;;-6.03;78.83
44148;BME280;29810;55.848;37.368;2023-02-12T15:43:16;99460.03;;;-6.01;78.75
44148;BME280;29810;55.848;37.368;2023-02-12T15:46:18;99461.69;;;-6.03;78.79
44148;BME280;29810;55.848;37.368;2023-02-12T15:49:19;99462.34;;;-6.09;78.83
44148;BME280;29810;55.848;37.368;2023-02-12T15:52:31;99457.09;;;-6.13;78.96
44148;BME280;29810;55.848;37.368;2023-02-12T15:55:36;99465.91;;;-6.04;78.52
44148;BME280;29810;55.848;37.368;2023-02-12T15:58:47;99470.72;;;-6.11;78.58
44148;BME280;29810;55.848;37.368;2023-02-12T16:02:00;99469.13;;;-6.08;78.44
44148;BME280;29810;55.848;37.368;2023-02-12T16:05:04;99467.47;;;-6.07;78.44
44148;BME280;29810;55.848;37.368;2023-02-12T16:08:10;99471.53;;;-6.12;78.47
44148;BME280;29810;55.848;37.368;2023-02-12T16:11:19;99490.69;;;-6.21;78.63
44148;BME280;29810;55.848;37.368;2023-02-12T16:14:25;99491.72;;;-6.16;78.57
44148;BME280;29810;55.848;37.368;2023-02-12T16:17:31;99483.25;;;-6.16;78.68
44148;BME280;29810;55.848;37.368;2023-02-12T16:20:35;99482.13;;;-6.24;78.62
44148;BME280;29810;55.848;37.368;2023-02-12T16:23:37;99499.09;;;-6.23;78.83
44148;BME280;29810;55.848;37.368;2023-02-12T16:26:45;99498.16;;;-6.25;78.90
44148;BME280;29810;55.848;37.368;2023-02-12T16:29:52;99503.28;;;-6.24;78.94
44148;BME280;29810;55.848;37.368;2023-02-12T16:32:55;99496.31;;;-6.29;78.94
44148;BME280;29810;55.848;37.368;2023-02-12T16:36:12;99504.09;;;-6.25;78.62
44148;BME280;29810;55.848;37.368;2023-02-12T16:42:56;99507.81;;;-6.39;79.51
44148;BME280;29810;55.848;37.368;2023-02-12T16:46:03;99512.03;;;-6.40;79.28
44148;BME280;29810;55.848;37.368;2023-02-12T16:49:15;99502.62;;;-6.42;79.22
44148;BME280;29810;55.848;37.368;2023-02-12T16:52:38;99511.97;;;-6.41;79.32
44148;BME280;29810;55.848;37.368;2023-02-12T16:55:43;99503.16;;;-6.51;79.40
44148;BME280;29810;55.848;37.368;2023-02-12T16:58:46;99503.16;;;-6.51;79.43
44148;BME280;29810;55.848;37.368;2023-02-12T17:02:29;99512.84;;;-6.41;79.35
44148;BME280;29810;55.848;37.368;2023-02-12T17:05:30;99518.75;;;-6.40;79.09
44148;BME280;29810;55.848;37.368;2023-02-12T17:08:33;99500.53;;;-6.54;79.16
44148;BME280;29810;55.848;37.368;2023-02-12T17:11:35;99516.06;;;-6.45;79.21
44148;BME280;29810;55.848;37.368;2023-02-12T17:14:38;99511.03;;;-6.43;79.16
44148;BME280;29810;55.848;37.368;2023-02-12T17:17:39;99517.84;;;-6.42;79.09
44148;BME280;29810;55.848;37.368;2023-02-12T17:20:44;99516.34;;;-6.37;78.86
44148;BME280;29810;55.848;37.368;2023-02-12T17:24:01;99523.16;;;-6.36;78.99
44148;BME280;29810;55.848;37.368;2023-02-12T17:27:03;99430.69;;;-6.91;79.13
44148;BME280;29810;55.848;37.368;2023-02-12T17:30:05;99519.38;;;-6.47;79.48
44148;BME280;29810;55.848;37.368;2023-02-12T17:33:07;99526.94;;;-6.49;79.77
44148;BME280;29810;55.848;37.368;2023-02-12T17:36:10;99514.25;;;-6.49;79.89
44148;BME280;29810;55.848;37.368;2023-02-12T17:39:13;99513.31;;;-6.51;80.26
44148;BME280;29810;55.848;37.368;2023-02-12T17:42:15;99516.78;;;-6.49;80.10
44148;BME280;29810;55.848;37.368;2023-02-12T17:45:21;99482.31;;;-6.67;80.59
44148;BME280;29810;55.848;37.368;2023-02-12T17:48:28;99505.75;;;-6.50;80.75
44148;BME280;29810;55.848;37.368;2023-02-12T17:51:52;99456.41;;;-6.82;80.60
44148;BME280;29810;55.848;37.368;2023-02-12T17:54:54;99509.97;;;-6.50;81.04
44148;BME280;29810;55.848;37.368;2023-02-12T17:58:00;99520.00;;;-6.53;80.99
44148;BME280;29810;55.848;37.368;2023-02-12T18:01:08;99504.66;;;-6.56;81.21
44148;BME280;29810;55.848;37.368;2023-02-12T18:04:30;99511.56;;;-6.52;81.23
44148;BME280;29810;55.848;37.368;2023-02-12T18:07:58;99521.72;;;-6.52;81.51
44148;BME280;29810;55.848;37.368;2023-02-12T18:11:07;99526.13;;;-6.48;81.25
44148;BME280;29810;55.848;37.368;2023-02-12T18:14:10;99506.50;;;-6.52;81.34
44148;BME280;29810;55.848;37.368;2023-02-12T18:17:12;99511.53;;;-6.54;81.59
44148;BME280;29810;55.848;37.368;2023-02-12T18:20:14;99481.75;;;-6.82;81.82
44148;BME280;29810;55.848;37.368;2023-02-12T18:23:17;99519.13;;;-6.54;81.83
44148;BME280;29810;55.848;37.368;2023-02-12T18:26:18;99526.63;;;-6.57;81.86
44148;BME280;29810;55.848;37.368;2023-02-12T18:29:21;99529.22;;;-6.55;81.92